createdAt,value
2017-09-02T00:00:06.710Z,87.50
2017-09-02T00:02:35.129Z,87.50
2017-09-02T00:05:03.481Z,87.50
2017-09-02T00:07:31.800Z,87.30
2017-09-02T00:10:00.136Z,87.40
2017-09-02T00:12:28.452Z,87.40
2017-09-02T00:14:56.797Z,87.10
2017-09-02T00:17:25.112Z,87.20
2017-09-02T00:19:52.688Z,87.10
2017-09-02T00:22:21.005Z,87.30
2017-09-02T00:24:49.325Z,87.10
2017-09-02T00:27:17.666Z,86.90
2017-09-02T00:29:45.979Z,86.60
2017-09-02T00:32:14.312Z,86.60
2017-09-02T00:34:42.628Z,86.80
2017-09-02T00:37:10.972Z,86.80
2017-09-02T00:39:39.280Z,86.50
2017-09-02T00:42:07.616Z,86.40
2017-09-02T00:44:35.937Z,86.50
2017-09-02T00:47:04.275Z,86.40
2017-09-02T00:49:32.592Z,86.60
2017-09-02T00:52:00.951Z,86.70
2017-09-02T00:54:29.268Z,86.80
2017-09-02T00:56:57.589Z,87.00
2017-09-02T00:59:25.933Z,87.10
2017-09-02T01:01:56.179Z,87.10
2017-09-02T01:04:24.514Z,87.30
2017-09-02T01:06:52.824Z,87.40
2017-09-02T01:09:21.159Z,87.80
2017-09-02T01:11:49.473Z,88.00
2017-09-02T01:14:17.808Z,88.10
2017-09-02T01:16:46.128Z,87.80
2017-09-02T01:19:14.465Z,87.60
2017-09-02T01:21:42.779Z,87.50
2017-09-02T01:24:11.144Z,87.50
2017-09-02T01:26:39.470Z,87.50
2017-09-02T01:29:07.794Z,87.30
2017-09-02T01:31:36.135Z,87.50
2017-09-02T01:34:04.449Z,87.50
2017-09-02T01:36:32.789Z,87.60
2017-09-02T01:39:01.107Z,87.40
2017-09-02T01:41:29.438Z,87.30
2017-09-02T01:43:57.759Z,87.20
2017-09-02T01:46:26.104Z,87.10
2017-09-02T01:48:54.424Z,87.10
2017-09-02T01:51:22.743Z,87.10
2017-09-02T01:53:51.083Z,87.20
2017-09-02T01:56:19.395Z,87.60
2017-09-02T01:58:47.733Z,87.70
2017-09-02T02:01:16.047Z,87.70
2017-09-02T02:03:44.383Z,87.60
2017-09-02T02:06:12.696Z,87.60
2017-09-02T02:08:41.036Z,87.70
2017-09-02T02:11:09.355Z,87.90
2017-09-02T02:13:37.683Z,88.10
2017-09-02T02:16:06.015Z,88.10
2017-09-02T02:18:34.332Z,88.10
2017-09-02T02:21:02.664Z,88.10
2017-09-02T02:23:30.978Z,88.00
2017-09-02T02:25:59.312Z,88.20
2017-09-02T02:28:27.624Z,88.20
2017-09-02T02:30:55.951Z,88.10
2017-09-02T02:33:24.272Z,88.10
2017-09-02T02:35:52.623Z,88.10
2017-09-02T02:38:20.936Z,88.00
2017-09-02T02:40:49.253Z,88.00
2017-09-02T02:43:17.597Z,87.90
2017-09-02T02:45:45.913Z,87.70
2017-09-02T02:48:14.251Z,87.80
2017-09-02T02:50:42.574Z,87.90
2017-09-02T02:53:10.145Z,87.90
2017-09-02T02:55:38.461Z,87.80
2017-09-02T02:58:06.792Z,87.70
2017-09-02T03:00:35.108Z,87.70
2017-09-02T03:03:03.448Z,87.70
2017-09-02T03:05:31.763Z,87.70
2017-09-02T03:08:00.080Z,87.70
2017-09-02T03:10:28.420Z,87.60
2017-09-02T03:12:55.971Z,87.60
2017-09-02T03:15:24.304Z,87.40
2017-09-02T03:17:52.625Z,87.20
2017-09-02T03:20:20.960Z,87.30
2017-09-02T03:22:49.267Z,87.40
2017-09-02T03:25:17.604Z,87.30
2017-09-02T03:27:45.917Z,87.30
2017-09-02T03:30:14.260Z,87.40
2017-09-02T03:32:42.575Z,87.40
2017-09-02T03:35:10.893Z,87.30
2017-09-02T03:37:39.230Z,87.10
2017-09-02T03:40:07.540Z,87.20
2017-09-02T03:42:35.881Z,87.30
2017-09-02T03:45:04.196Z,87.30
2017-09-02T03:47:32.533Z,87.40
2017-09-02T03:50:00.083Z,87.30
2017-09-02T03:52:28.419Z,87.40
2017-09-02T03:54:56.737Z,87.30
2017-09-02T03:57:25.077Z,87.20
2017-09-02T03:59:53.389Z,87.30
2017-09-02T04:02:21.708Z,87.50
2017-09-02T04:04:50.047Z,87.40
2017-09-02T04:07:18.404Z,87.40
2017-09-02T04:09:46.739Z,87.40
2017-09-02T04:12:14.288Z,87.40
2017-09-02T04:14:42.634Z,87.50
2017-09-02T04:17:10.961Z,87.50
2017-09-02T04:19:39.301Z,87.30
2017-09-02T04:22:07.617Z,87.40
2017-09-02T04:24:35.960Z,87.30
2017-09-02T04:27:04.279Z,87.30
2017-09-02T04:29:32.639Z,87.40
2017-09-02T04:32:00.955Z,87.50
2017-09-02T04:34:29.271Z,87.50
2017-09-02T04:36:57.608Z,87.50
2017-09-02T04:39:25.923Z,87.70
2017-09-02T04:41:54.262Z,87.50
2017-09-02T04:44:22.573Z,87.70
2017-09-02T04:46:50.913Z,87.50
2017-09-02T04:49:19.233Z,87.70
2017-09-02T04:51:47.571Z,88.00
2017-09-02T04:54:15.888Z,88.50
2017-09-02T04:56:44.223Z,88.50
2017-09-02T04:59:12.536Z,88.40
2017-09-02T05:01:40.902Z,88.20
2017-09-02T05:04:09.221Z,88.00
2017-09-02T05:06:37.535Z,87.90
2017-09-02T05:09:05.872Z,87.90
2017-09-02T05:11:34.183Z,87.70
2017-09-02T05:14:02.526Z,87.80
2017-09-02T05:16:30.846Z,87.60
2017-09-02T05:18:59.187Z,87.70
2017-09-02T05:21:27.498Z,87.60
2017-09-02T05:23:55.844Z,87.70
2017-09-02T05:26:24.164Z,87.50
2017-09-02T05:28:52.496Z,87.40
2017-09-02T05:31:20.047Z,87.30
2017-09-02T05:33:48.406Z,87.30
2017-09-02T05:36:16.723Z,87.20
2017-09-02T05:38:45.047Z,87.00
2017-09-02T05:41:13.395Z,87.00
2017-09-02T05:43:41.713Z,87.00
2017-09-02T05:46:10.057Z,86.90
2017-09-02T05:48:38.380Z,86.90
2017-09-02T05:51:06.715Z,86.70
2017-09-02T05:53:35.036Z,86.60
2017-09-02T05:56:03.377Z,86.60
2017-09-02T05:58:31.702Z,86.60
2017-09-02T06:01:00.048Z,86.50
2017-09-02T06:03:28.373Z,86.50
2017-09-02T06:05:56.720Z,86.90
2017-09-02T06:08:25.047Z,86.20
2017-09-02T06:10:53.371Z,85.90
2017-09-02T06:13:21.711Z,85.60
2017-09-02T06:15:50.357Z,85.30
2017-09-02T06:18:18.735Z,85.10
2017-09-02T06:20:47.075Z,85.00
2017-09-02T06:23:15.464Z,84.90
2017-09-02T06:25:44.330Z,84.50
2017-09-02T06:28:12.692Z,84.30
2017-09-02T06:30:41.013Z,83.80
2017-09-02T06:33:09.357Z,83.60
2017-09-02T06:35:37.677Z,83.40
2017-09-02T06:38:05.994Z,83.30
2017-09-02T06:40:34.335Z,83.00
2017-09-02T06:43:02.676Z,82.70
2017-09-02T06:45:31.034Z,82.50
2017-09-02T06:47:59.437Z,82.30
2017-09-02T06:50:27.780Z,82.80
2017-09-02T06:52:56.105Z,81.10
2017-09-02T06:55:24.451Z,80.20
2017-09-02T06:57:52.769Z,79.40
2017-09-02T07:00:21.203Z,78.70
2017-09-02T07:02:48.775Z,78.70
2017-09-02T07:05:17.096Z,78.10
2017-09-02T07:07:45.438Z,78.10
2017-09-02T07:10:13.757Z,78.20
2017-09-02T07:12:42.099Z,77.30
2017-09-02T07:15:10.416Z,76.70
2017-09-02T07:17:38.772Z,76.60
2017-09-02T07:20:07.103Z,76.40
2017-09-02T07:22:35.423Z,76.00
2017-09-02T07:25:03.764Z,75.30
2017-09-02T07:27:32.087Z,75.80
2017-09-02T07:30:00.428Z,76.50
2017-09-02T07:32:28.747Z,77.30
2017-09-02T07:34:57.083Z,77.60
2017-09-02T07:37:25.399Z,77.70
2017-09-02T07:39:53.756Z,78.40
2017-09-02T07:42:22.073Z,78.70
2017-09-02T07:44:50.418Z,78.90
2017-09-02T07:47:18.755Z,79.60
2017-09-02T07:49:47.067Z,80.10
2017-09-02T07:52:15.403Z,80.50
2017-09-02T07:54:43.728Z,80.50
2017-09-02T07:57:12.067Z,80.70
2017-09-02T07:59:40.387Z,80.80
2017-09-02T08:02:07.956Z,80.80
2017-09-02T08:04:36.276Z,80.60
2017-09-02T08:07:04.637Z,80.00
2017-09-02T08:09:32.953Z,79.90
2017-09-02T08:12:01.270Z,79.90
2017-09-02T08:14:29.612Z,79.50
2017-09-02T08:16:57.979Z,79.60
2017-09-02T08:19:26.319Z,79.70
2017-09-02T08:21:54.639Z,79.20
2017-09-02T08:24:22.980Z,78.30
2017-09-02T08:26:51.294Z,77.50
2017-09-02T08:29:19.634Z,77.00
2017-09-02T08:31:47.953Z,76.90
2017-09-02T08:34:16.307Z,76.90
2017-09-02T08:36:44.624Z,77.10
2017-09-02T08:39:12.945Z,76.90
2017-09-02T08:41:41.297Z,76.90
2017-09-02T08:44:09.611Z,76.90
2017-09-02T08:46:37.956Z,76.60
2017-09-02T08:49:06.288Z,76.60
2017-09-02T08:51:34.625Z,75.60
2017-09-02T08:54:02.940Z,75.20
2017-09-02T08:56:31.279Z,74.80
2017-09-02T08:58:59.599Z,74.90
2017-09-02T09:01:27.948Z,74.20
2017-09-02T09:03:56.279Z,74.40
2017-09-02T09:06:24.641Z,74.30
2017-09-02T09:08:52.965Z,73.80
2017-09-02T09:11:20.519Z,73.80
2017-09-02T09:13:48.871Z,72.60
2017-09-02T09:16:17.199Z,71.60
2017-09-02T09:18:45.539Z,71.60
2017-09-02T09:21:13.864Z,69.70
2017-09-02T09:23:42.213Z,68.70
2017-09-02T09:26:10.534Z,67.60
2017-09-02T09:28:38.884Z,66.40
2017-09-02T09:31:07.228Z,66.90
2017-09-02T09:33:34.844Z,66.90
2017-09-02T09:36:03.176Z,68.50
2017-09-02T09:38:31.500Z,68.60
2017-09-02T09:40:59.846Z,68.80
2017-09-02T09:43:28.168Z,68.80
2017-09-02T09:45:56.520Z,68.80
2017-09-02T09:48:24.841Z,68.50
2017-09-02T09:50:53.194Z,67.70
2017-09-02T09:53:21.519Z,67.50
2017-09-02T09:55:49.863Z,66.60
2017-09-02T09:58:18.180Z,66.50
2017-09-02T10:00:46.567Z,66.10
2017-09-02T10:03:14.884Z,66.10
2017-09-02T10:05:42.443Z,67.00
2017-09-02T10:08:10.788Z,63.60
2017-09-02T10:10:38.335Z,63.50
2017-09-02T10:13:06.686Z,61.50
2017-09-02T10:15:34.243Z,61.30
2017-09-02T10:18:02.579Z,59.70
2017-09-02T10:20:30.896Z,59.10
2017-09-02T10:22:59.242Z,57.90
2017-09-02T10:25:27.559Z,57.40
2017-09-02T10:27:55.923Z,58.20
2017-09-02T10:30:24.256Z,58.80
2017-09-02T10:32:52.625Z,57.90
2017-09-02T10:35:20.943Z,58.00
2017-09-02T10:37:49.267Z,58.60
2017-09-02T10:40:17.607Z,59.20
2017-09-02T10:42:45.923Z,59.30
2017-09-02T10:45:14.276Z,59.40
2017-09-02T10:47:42.595Z,59.30
2017-09-02T10:50:10.962Z,59.00
2017-09-02T10:52:39.291Z,58.90
2017-09-02T10:55:06.875Z,58.90
2017-09-02T10:57:35.204Z,58.30
2017-09-02T11:00:03.581Z,57.20
2017-09-02T11:02:31.907Z,57.20
2017-09-02T11:05:00.223Z,57.20
2017-09-02T11:07:28.567Z,56.90
2017-09-02T11:09:56.120Z,56.80
2017-09-02T11:12:24.466Z,56.60
2017-09-02T11:14:52.783Z,55.60
2017-09-02T11:17:21.122Z,54.70
2017-09-02T11:19:48.684Z,54.60
2017-09-02T11:22:17.033Z,54.00
2017-09-02T11:24:45.355Z,54.20
2017-09-02T11:27:13.722Z,54.20
2017-09-02T11:29:42.044Z,54.10
2017-09-02T11:32:10.388Z,53.70
2017-09-02T11:34:38.764Z,53.30
2017-09-02T11:37:07.079Z,52.80
2017-09-02T11:39:35.514Z,52.90
2017-09-02T11:42:03.867Z,53.40
2017-09-02T11:44:32.216Z,54.80
2017-09-02T11:47:00.535Z,56.10
2017-09-02T11:49:28.891Z,56.50
2017-09-02T11:51:57.220Z,56.60
2017-09-02T11:54:25.579Z,57.30
2017-09-02T11:56:53.894Z,56.60
2017-09-02T11:59:22.255Z,56.30
2017-09-02T12:01:50.590Z,55.30
2017-09-02T12:04:18.908Z,55.30
2017-09-02T12:06:47.250Z,55.10
2017-09-02T12:09:15.579Z,54.30
2017-09-02T12:11:43.927Z,55.00
2017-09-02T12:14:12.258Z,55.30
2017-09-02T12:16:40.621Z,55.60
2017-09-02T12:19:09.000Z,54.70
2017-09-02T12:21:37.350Z,53.70
2017-09-02T12:24:05.677Z,52.30
2017-09-02T12:26:34.029Z,51.70
2017-09-02T12:29:02.355Z,50.80
2017-09-02T12:31:30.716Z,49.00
2017-09-02T12:33:59.044Z,49.00
2017-09-02T12:36:27.367Z,48.90
2017-09-02T12:38:55.717Z,48.80
2017-09-02T12:41:24.039Z,48.50
2017-09-02T12:43:52.388Z,46.70
2017-09-02T12:46:20.738Z,47.70
2017-09-02T12:48:49.077Z,47.40
2017-09-02T12:51:17.401Z,48.30
2017-09-02T12:53:45.749Z,48.70
2017-09-02T12:56:14.156Z,50.10
2017-09-02T12:58:42.524Z,52.70
2017-09-02T13:01:10.844Z,54.60
2017-09-02T13:03:39.175Z,56.10
2017-09-02T13:06:07.516Z,56.60
2017-09-02T13:08:35.938Z,56.60
2017-09-02T13:11:04.287Z,58.00
2017-09-02T13:13:32.613Z,59.40
2017-09-02T13:16:00.196Z,59.40
2017-09-02T13:18:28.849Z,59.10
2017-09-02T13:20:57.197Z,59.90
2017-09-02T13:23:25.520Z,60.60
2017-09-02T13:25:53.889Z,61.60
2017-09-02T13:28:22.237Z,63.60
2017-09-02T13:30:50.556Z,65.30
2017-09-02T13:33:18.920Z,66.90
2017-09-02T13:35:47.240Z,67.80
2017-09-02T13:38:15.685Z,66.70
2017-09-02T13:40:44.035Z,66.00
2017-09-02T13:43:12.392Z,67.50
2017-09-02T13:45:39.968Z,67.50
2017-09-02T13:48:08.303Z,65.40
2017-09-02T13:50:36.637Z,64.30
2017-09-02T13:53:05.026Z,65.20
2017-09-02T13:55:33.361Z,66.40
2017-09-02T13:58:01.709Z,67.10
2017-09-02T14:00:30.024Z,66.20
2017-09-02T14:02:58.360Z,64.70
2017-09-02T14:05:26.704Z,65.50
2017-09-02T14:07:55.027Z,66.40
2017-09-02T14:10:31.302Z,66.40
2017-09-02T14:12:59.631Z,66.90
2017-09-02T14:15:28.023Z,67.40
2017-09-02T14:17:56.348Z,67.80
2017-09-02T14:20:24.759Z,67.60
2017-09-02T14:22:53.087Z,66.60
2017-09-02T14:25:21.440Z,67.60
2017-09-02T14:27:49.759Z,67.00
2017-09-02T14:30:18.175Z,67.00
2017-09-02T14:32:46.492Z,66.40
2017-09-02T14:35:14.823Z,65.30
2017-09-02T14:37:43.179Z,62.70
2017-09-02T14:40:11.520Z,60.70
2017-09-02T14:42:39.876Z,60.00
2017-09-02T14:45:08.200Z,58.50
2017-09-02T14:47:36.536Z,58.50
2017-09-02T14:50:04.857Z,57.80
2017-09-02T14:52:33.215Z,56.90
2017-09-02T14:55:01.540Z,56.00
2017-09-02T14:57:29.879Z,56.50
2017-09-02T14:59:58.200Z,56.20
2017-09-02T15:02:26.558Z,55.70
2017-09-02T15:04:54.881Z,56.10
2017-09-02T15:07:23.239Z,56.70
2017-09-02T15:09:51.583Z,58.60
2017-09-02T15:12:19.164Z,58.60
2017-09-02T15:14:47.532Z,58.40
2017-09-02T15:17:15.864Z,58.00
2017-09-02T15:19:43.456Z,58.00
2017-09-02T15:22:11.866Z,58.60
2017-09-02T15:24:40.208Z,59.30
2017-09-02T15:27:08.624Z,58.90
2017-09-02T15:29:36.962Z,58.10
2017-09-02T15:32:05.288Z,55.70
2017-09-02T15:34:33.658Z,55.80
2017-09-02T15:37:01.985Z,56.10
2017-09-02T15:39:30.306Z,55.50
2017-09-02T15:41:57.885Z,55.50
2017-09-02T15:44:26.246Z,55.10
2017-09-02T15:46:54.605Z,53.30
2017-09-02T15:49:22.931Z,53.10
2017-09-02T15:51:51.287Z,53.90
2017-09-02T15:54:19.653Z,54.40
2017-09-02T15:56:48.063Z,53.60
2017-09-02T15:59:16.415Z,53.90
2017-09-02T16:01:44.755Z,54.50
2017-09-02T16:04:13.076Z,55.70
2017-09-02T16:06:41.396Z,56.70
2017-09-02T16:09:09.744Z,57.00
2017-09-02T16:11:38.071Z,57.00
2017-09-02T16:14:06.421Z,55.80
2017-09-02T16:16:34.739Z,54.50
2017-09-02T16:19:03.151Z,55.40
2017-09-02T16:21:31.469Z,55.60
2017-09-02T16:23:59.816Z,56.00
2017-09-02T16:26:28.140Z,56.30
2017-09-02T16:28:56.492Z,55.60
2017-09-02T16:31:24.833Z,56.40
2017-09-02T16:33:53.183Z,56.60
2017-09-02T16:36:21.506Z,56.60
2017-09-02T16:38:49.820Z,56.40
2017-09-02T16:41:18.159Z,56.50
2017-09-02T16:43:46.476Z,56.40
2017-09-02T16:46:14.823Z,56.40
2017-09-02T16:48:43.147Z,57.60
2017-09-02T16:51:11.484Z,58.90
2017-09-02T16:53:39.803Z,59.70
2017-09-02T16:56:08.137Z,61.00
2017-09-02T16:58:36.459Z,62.30
2017-09-02T17:01:04.820Z,63.50
2017-09-02T17:03:33.140Z,65.00
2017-09-02T17:06:01.512Z,66.50
2017-09-02T17:08:29.861Z,67.10
2017-09-02T17:10:58.264Z,67.10
2017-09-02T17:13:26.608Z,67.80
2017-09-02T17:15:54.931Z,68.80
2017-09-02T17:18:23.327Z,69.90
2017-09-02T17:20:51.695Z,70.90
2017-09-02T17:23:20.082Z,70.00
2017-09-02T17:25:47.635Z,70.00
2017-09-02T17:28:16.016Z,68.20
2017-09-02T17:30:44.343Z,67.10
2017-09-02T17:33:12.663Z,67.50
2017-09-02T17:35:40.999Z,68.50
2017-09-02T17:38:09.320Z,70.00
2017-09-02T17:40:37.662Z,71.00
2017-09-02T17:43:05.983Z,72.00
2017-09-02T17:45:34.319Z,72.90
2017-09-02T17:48:02.645Z,73.90
2017-09-02T17:50:31.031Z,74.80
2017-09-02T17:52:59.367Z,76.20
2017-09-02T17:55:27.703Z,76.30
2017-09-02T17:57:56.025Z,77.00
2017-09-02T18:00:24.371Z,77.70
2017-09-02T18:02:52.687Z,78.10
2017-09-02T18:05:21.018Z,78.70
2017-09-02T18:07:49.360Z,79.20
2017-09-02T18:10:17.679Z,79.60
2017-09-02T18:12:46.112Z,80.10
2017-09-02T18:15:14.439Z,80.50
2017-09-02T18:17:42.786Z,80.90
2017-09-02T18:20:12.518Z,81.00
2017-09-02T18:22:41.768Z,81.20
2017-09-02T18:25:10.789Z,81.60
2017-09-02T18:27:39.598Z,81.80
2017-09-02T18:30:08.510Z,82.10
2017-09-02T18:32:36.928Z,82.50
2017-09-02T18:35:05.502Z,83.10
2017-09-02T18:37:34.289Z,83.20
2017-09-02T18:40:02.847Z,83.40
2017-09-02T18:42:31.596Z,83.50
2017-09-02T18:44:59.388Z,83.50
2017-09-02T18:47:28.244Z,83.80
2017-09-02T18:49:57.020Z,84.00
2017-09-02T18:52:26.093Z,84.30
2017-09-02T18:54:54.532Z,84.40
2017-09-02T18:57:23.228Z,84.60
2017-09-02T18:59:52.080Z,84.80
2017-09-02T19:02:20.397Z,84.60
2017-09-02T19:04:50.077Z,84.80
2017-09-02T19:07:18.822Z,84.90
2017-09-02T19:09:48.848Z,85.00
2017-09-02T19:12:17.883Z,85.00
2017-09-02T19:14:46.458Z,85.00
2017-09-02T19:17:15.159Z,84.80
2017-09-02T19:19:43.637Z,84.80
2017-09-02T19:22:12.736Z,85.00
2017-09-02T19:24:41.303Z,85.40
2017-09-02T19:27:10.720Z,85.30
2017-09-02T19:29:39.587Z,85.20
2017-09-02T19:32:08.468Z,85.30
2017-09-02T19:34:36.979Z,85.30
2017-09-02T19:37:05.614Z,85.10
2017-09-02T19:39:34.044Z,85.20
2017-09-02T19:42:02.954Z,85.60
2017-09-02T19:44:31.775Z,85.80
2017-09-02T19:47:01.291Z,85.30
2017-09-02T19:49:29.958Z,85.40
2017-09-02T19:51:59.249Z,85.20
2017-09-02T19:54:28.230Z,85.30
2017-09-02T19:56:58.269Z,85.50
2017-09-02T19:59:27.328Z,85.50
2017-09-02T20:01:57.016Z,85.50
2017-09-02T20:04:26.581Z,85.60
2017-09-02T20:06:55.196Z,85.70
2017-09-02T20:09:24.348Z,85.90
2017-09-02T20:11:53.776Z,86.00
2017-09-02T20:14:22.931Z,86.20
2017-09-02T20:16:52.644Z,86.40
2017-09-02T20:19:21.118Z,86.40
2017-09-02T20:21:49.613Z,86.00
2017-09-02T20:24:18.106Z,86.10
2017-09-02T20:26:47.008Z,86.10
2017-09-02T20:29:17.351Z,86.20
2017-09-02T20:31:46.889Z,86.20
2017-09-02T20:34:16.424Z,86.30
2017-09-02T20:36:45.526Z,85.80
2017-09-02T20:39:15.745Z,85.90
2017-09-02T20:41:45.312Z,85.80
2017-09-02T20:44:15.933Z,86.00
2017-09-02T20:46:44.455Z,86.00
2017-09-02T20:49:14.737Z,85.90
2017-09-02T20:51:44.713Z,85.80
2017-09-02T20:54:14.914Z,85.80
2017-09-02T20:56:43.878Z,86.40
2017-09-02T20:59:20.298Z,85.50
2017-09-02T21:01:50.722Z,85.50
2017-09-02T21:04:19.311Z,85.80
2017-09-02T21:06:47.677Z,86.00
2017-09-02T21:09:16.420Z,86.00
2017-09-02T21:11:44.740Z,86.10
2017-09-02T21:14:13.079Z,85.80
2017-09-02T21:16:41.416Z,85.60
2017-09-02T21:19:09.757Z,85.50
2017-09-02T21:21:38.079Z,85.50
2017-09-02T21:24:06.424Z,85.40
2017-09-02T21:26:34.747Z,85.60
2017-09-02T21:29:03.099Z,86.30
2017-09-02T21:31:31.419Z,86.20
2017-09-02T21:33:59.772Z,86.00
2017-09-02T21:36:28.116Z,85.90
2017-09-02T21:38:56.459Z,85.80
2017-09-02T21:41:24.784Z,85.80
2017-09-02T21:43:53.140Z,85.80
2017-09-02T21:46:21.466Z,86.00
2017-09-02T21:48:49.778Z,87.10
2017-09-02T21:51:18.122Z,86.10
2017-09-02T21:53:46.439Z,87.20
2017-09-02T21:56:14.786Z,87.10
2017-09-02T21:58:43.105Z,86.90
2017-09-02T22:01:11.448Z,86.90
2017-09-02T22:03:39.764Z,86.80
2017-09-02T22:06:08.104Z,87.00
2017-09-02T22:08:36.416Z,87.20
2017-09-02T22:11:04.754Z,87.20
2017-09-02T22:13:33.078Z,87.20
2017-09-02T22:16:01.396Z,87.20
2017-09-02T22:18:29.732Z,87.10
2017-09-02T22:20:58.047Z,87.10
2017-09-02T22:23:26.421Z,87.10
2017-09-02T22:25:54.745Z,87.10
2017-09-02T22:28:23.092Z,86.90
2017-09-02T22:30:51.413Z,86.90
2017-09-02T22:33:19.757Z,87.20
2017-09-02T22:35:48.066Z,87.20
2017-09-02T22:38:16.420Z,87.50
2017-09-02T22:40:44.740Z,87.60
2017-09-02T22:43:13.058Z,87.30
2017-09-02T22:45:41.404Z,87.20
2017-09-02T22:48:09.720Z,87.10
2017-09-02T22:50:38.064Z,87.10
2017-09-02T22:53:06.392Z,87.20
2017-09-02T22:55:34.731Z,87.10
2017-09-02T22:58:03.044Z,86.90
2017-09-02T23:00:31.385Z,86.70
2017-09-02T23:02:59.700Z,86.90
2017-09-02T23:05:28.044Z,87.30
2017-09-02T23:07:56.368Z,87.40
2017-09-02T23:10:24.723Z,87.50
2017-09-02T23:12:53.044Z,87.40
2017-09-02T23:15:21.355Z,87.40
2017-09-02T23:17:49.691Z,87.90
2017-09-02T23:20:18.008Z,87.50
2017-09-02T23:22:45.581Z,87.40
2017-09-02T23:25:13.899Z,87.30
2017-09-02T23:27:42.235Z,87.20
2017-09-02T23:30:10.547Z,87.00
2017-09-02T23:32:38.895Z,87.00
2017-09-02T23:35:07.219Z,87.10
2017-09-02T23:37:35.558Z,86.80
2017-09-02T23:40:03.879Z,87.00
2017-09-02T23:42:32.247Z,87.00
2017-09-02T23:45:00.567Z,86.90
2017-09-02T23:47:28.892Z,87.50
2017-09-02T23:49:57.232Z,87.00
2017-09-02T23:52:25.544Z,87.20
2017-09-02T23:54:53.894Z,88.20
2017-09-02T23:57:22.207Z,87.50
2017-09-02T23:59:50.551Z,87.50
